CheckWX is a tool to help pilots better visualize weather data.  It is not intended as a substitute for an official pre-flight weather briefing.

00:24:47 UTC

KBOS TAF
General Edward Lawrence Logan International Airport
Boston, Massachusetts, USA
KBOS 202329Z 2100/2206 18012G20KT P6SM -SHRA OVC015 WS020/19045KT FM210500 18010KT P6SM VCSH OVC015 FM211400 15005KT P6SM OVC020 FM211800 12008KT P6SM OVC050 FM220000 13008KT P6SM OVC030

Apr-21@
00:00 UTC

Apr-21 @ 00:00 UTC

Apr-21@
05:00 UTC

Apr-21 @ 05:00 UTC

KBOS 202329Z 2100/2206 18012G20KT P6SM -SHRA OVC015 WS020/19045KT
Wind
  • 180° at 12 KTS
  • {Gusting to 20 KTS
Conditions
Light Rain
Cloud Levels
  • Overcast at 1,500' AGL

Apr-21@
05:00 UTC

Apr-21 @ 05:00 UTC

Apr-21@
14:00 UTC

Apr-21 @ 14:00 UTC

FM210500 18010KT P6SM VCSH OVC015

From

From Standard forecast or significant change

Wind
  • 180° at 10 KTS
Cloud Levels
  • Overcast at 1,500' AGL

Apr-21@
14:00 UTC

Apr-21 @ 14:00 UTC

Apr-21@
18:00 UTC

Apr-21 @ 18:00 UTC

FM211400 15005KT P6SM OVC020

From

From Standard forecast or significant change

Wind
  • 150° at 5 KTS
Cloud Levels
  • Overcast at 2,000' AGL

Apr-21@
18:00 UTC

Apr-21 @ 18:00 UTC

Apr-22@
00:00 UTC

Apr-22 @ 00:00 UTC

FM211800 12008KT P6SM OVC050

From

From Standard forecast or significant change

Wind
  • 120° at 8 KTS
Cloud Levels
  • Overcast at 5,000' AGL

Apr-22@
00:00 UTC

Apr-22 @ 00:00 UTC

Apr-22@
06:00 UTC

Apr-22 @ 06:00 UTC

FM220000 13008KT P6SM OVC030

From

From Standard forecast or significant change

Wind
  • 130° at 8 KTS
Cloud Levels
  • Overcast at 3,000' AGL